Latest Weather Observations for Townsville

IDQ60801

Issued at 6:31 am EST Sunday 5 July 2015 (issued every 30 minutes, with the page automatically refreshed every 10 minutes)

About weather observations | Map of weather stations | Latest weather observations for QLD | Other Formats
Station Details ID: 032040 Name: TOWNSVILLE AERO Lat: -19.25 Lon: 146.77 Height: 4.34 m
Data from the previous 72 hours. | See also: Recent months at Townsville
Date/Time
EST
Temp
°C
App
Temp
°C
Dew
Point
Rel
Hum
%
Delta-T
°C
Wind Press
QNH
hPa
Press
MSL
hPa
Rain
since 9 am
mm
Dir
 
Spd
km/h
Gust
km/h
Spd
kts
Gust
kts
05/05:30am 16.5 15.5 13.3 81 1.8 SSW 11 13 6 7 1017.9 - 0.0
05/05:00am 15.8 14.8 13.3 85 1.4 S 11 11 6 6 1017.7 - 0.0
05/04:30am 16.1 15.8 13.4 84 1.5 SSW 7 9 4 5 1017.7 - 0.0
05/04:00am 16.3 16.1 13.6 84 1.5 S 7 9 4 5 1017.7 - 0.0
05/03:30am 15.8 15.5 13.3 85 1.4 S 7 9 4 5 1017.6 - 0.0
05/03:00am 15.2 16.2 13.2 88 1.1 CALM 0 0 0 0 1017.6 1017.6 0.0
05/02:30am 16.2 16.0 13.5 84 1.5 NNW 7 9 4 5 1017.9 - 0.0
05/02:00am 16.7 15.5 13.9 83 1.6 S 13 15 7 8 1018.0 - 0.0
05/01:30am 17.1 15.9 14.1 82 1.7 S 13 15 7 8 1018.3 - 0.0
05/01:00am 17.4 16.7 14.4 82 1.7 S 11 13 6 7 1018.5 - 0.0
05/12:30am 17.7 17.9 14.8 83 1.7 SSE 7 9 4 5 1018.6 - 0.0
05/12:00am 18.5 18.0 14.9 79 2.1 ESE 11 11 6 6 1018.7 1018.7 0.0
 
Date/Time
EST
Temp
°C
App
Temp
°C
Dew
Point
Rel
Hum
%
Delta-T
°C
Wind Press
QNH
hPa
Press
MSL
hPa
Rain
since 9 am
mm
Dir
 
Spd
km/h
Gust
km/h
Spd
kts
Gust
kts
04/11:30pm 18.4 17.9 15.0 80 2.0 SE 11 13 6 7 1018.8 - 0.0
04/11:00pm 18.3 18.2 14.9 80 2.0 SE 9 11 5 6 1018.9 - 0.0
04/10:30pm 18.2 18.1 14.9 81 1.9 SSE 9 11 5 6 1018.9 - 0.0
04/10:00pm 18.1 18.1 15.2 83 1.7 SE 9 11 5 6 1019.0 - 0.0
04/09:30pm 19.0 19.4 15.4 79 2.1 ESE 7 11 4 6 1018.8 - 0.0
04/09:00pm 19.2 19.5 15.1 77 2.4 SE 7 11 4 6 1018.9 1018.9 0.0
04/08:30pm 19.6 19.5 15.0 75 2.7 SSE 9 11 5 6 1018.7 - 0.0
04/08:00pm 20.1 19.8 15.5 75 2.7 E 11 15 6 8 1018.4 - 0.0
04/07:30pm 20.9 19.4 15.3 70 3.3 E 17 24 9 13 1018.1 - 0.0
04/07:00pm 20.9 19.9 15.5 71 3.2 E 15 19 8 10 1017.7 - 0.0
04/06:30pm 21.0 20.3 15.3 70 3.4 E 13 17 7 9 1017.6 - 0.0
04/06:00pm 21.4 19.8 15.9 71 3.3 ENE 19 28 10 15 1017.4 1017.4 0.0
04/05:30pm 21.9 20.3 16.1 69 3.5 NE 19 22 10 12 1017.1 - 0.0
04/05:00pm 22.9 20.6 14.0 57 5.2 NNE 19 22 10 12 1017.0 - 0.0
04/04:30pm 23.7 21.5 13.2 51 6.1 NE 17 24 9 13 1016.7 - 0.0
04/04:00pm 23.8 21.5 14.1 54 5.7 NE 19 28 10 15 1016.6 - 0.0
04/03:30pm 23.8 21.6 14.9 57 5.3 NE 20 26 11 14 1016.7 - 0.0
04/03:00pm 24.0 20.3 12.7 49 6.5 ENE 24 33 13 18 1016.8 1016.8 0.0
04/02:30pm 24.7 20.7 11.9 44 7.3 NE 24 30 13 16 1017.0 - 0.0
04/02:00pm 23.9 20.9 12.1 47 6.7 ENE 19 28 10 15 1017.2 - 0.0
04/01:30pm 24.5 20.0 11.4 43 7.4 ENE 26 32 14 17 1017.4 - 0.0
04/01:00pm 24.1 20.4 11.5 45 7.1 ENE 22 32 12 17 1018.0 - 0.0
04/12:30pm 24.4 21.4 10.5 41 7.7 E 17 26 9 14 1018.6 - 0.0
04/12:00pm 24.2 21.2 10.5 42 7.6 SE 17 26 9 14 1019.0 1019.0 0.0
04/11:30am 23.2 20.1 10.3 44 7.1 ESE 17 26 9 14 1019.6 - 0.0
04/11:00am 22.3 20.1 10.7 47 6.4 ESE 13 20 7 11 1020.0 - 0.0
04/10:30am 21.7 19.5 10.8 50 6.0 SSE 13 19 7 10 1020.2 - 0.0
04/10:00am 20.8 19.3 10.7 52 5.5 S 9 13 5 7 1020.4 - 0.0
04/09:30am 19.5 18.3 10.2 55 5.0 S 7 13 4 7 1020.3 - 0.0
04/09:00am 18.5 16.0 9.8 57 4.6 SSW 13 15 7 8 1020.2 1020.2 0.0
04/08:30am 17.5 15.5 10.1 62 3.9 SSW 11 15 6 8 1019.9 - 0.0
04/08:00am 15.5 14.5 11.0 74 2.4 N 7 11 4 6 1019.8 - 0.0
04/07:30am 13.6 13.3 10.1 79 1.8 SW 2 7 1 4 1019.4 - 0.0
04/07:00am 14.0 12.0 10.1 77 2.0 SSW 11 13 6 7 1019.2 - 0.0
04/06:30am 13.6 11.9 9.9 78 1.9 S 9 11 5 6 1019.0 - 0.0
04/06:00am 14.0 12.7 9.9 76 2.1 S 7 9 4 5 1018.8 1018.8 0.0
04/05:30am 13.4 11.8 10.1 80 1.7 SSE 9 11 5 6 1018.6 - 0.0
04/05:00am 13.5 11.2 10.4 81 1.6 SSE 13 15 7 8 1018.5 - 0.0
04/04:30am 13.9 12.1 10.7 81 1.7 S 11 13 6 7 1018.4 - 0.0
04/04:00am 14.0 12.4 11.4 84 1.4 S 11 13 6 7 1018.4 - 0.0
04/03:30am 14.7 13.4 11.3 80 1.8 SSE 9 9 5 5 1018.4 - 0.0
04/03:00am 15.3 13.7 11.6 78 2.0 SE 11 15 6 8 1018.5 1018.5 0.0
04/02:30am 15.5 14.2 12.4 82 1.7 SE 11 13 6 7 1018.6 - 0.0
04/02:00am 16.2 14.7 13.0 81 1.8 SE 13 15 7 8 1018.8 - 0.0
04/01:30am 16.8 15.3 13.0 78 2.1 SE 13 13 7 7 1019.1 - 0.0
04/01:00am 16.5 14.9 12.9 79 2.0 SE 13 15 7 8 1019.3 - 0.0
04/12:30am 16.5 14.9 12.7 78 2.1 SE 13 15 7 8 1019.5 - 0.0
04/12:00am 16.4 14.9 12.0 75 2.4 SE 11 13 6 7 1019.8 1019.8 0.0
 
Date/Time
EST
Temp
°C
App
Temp
°C
Dew
Point
Rel
Hum
%
Delta-T
°C
Wind Press
QNH
hPa
Press
MSL
hPa
Rain
since 9 am
mm
Dir
 
Spd
km/h
Gust
km/h
Spd
kts
Gust
kts
03/11:30pm 16.4 14.9 11.8 74 2.5 SE 11 13 6 7 1019.9 - 0.0
03/11:00pm 17.0 15.2 12.1 73 2.7 SE 13 17 7 9 1020.1 - 0.0
03/10:30pm 17.4 15.2 12.1 71 2.9 SE 15 19 8 10 1020.0 - 0.0
03/10:00pm 18.1 15.8 11.7 66 3.5 SE 15 19 8 10 1019.9 - 0.0
03/09:30pm 18.4 15.6 11.4 63 3.8 SE 17 22 9 12 1019.9 - 0.0
03/09:00pm 18.4 17.0 12.3 67 3.4 SE 11 15 6 8 1019.6 1019.6 0.0
03/08:30pm 18.8 17.4 13.5 71 3.0 SE 13 17 7 9 1019.4 - 0.0
03/08:00pm 19.3 17.9 13.3 68 3.4 ESE 13 19 7 10 1019.0 - 0.0
03/07:30pm 19.8 18.3 13.1 65 3.8 E 13 15 7 8 1018.7 - 0.0
03/07:00pm 20.0 18.1 12.9 63 4.0 E 15 19 8 10 1018.3 - 0.0
03/06:30pm 20.4 17.8 13.2 63 4.1 E 19 24 10 13 1017.9 - 0.0
03/06:00pm 20.7 18.2 13.4 63 4.2 E 19 28 10 15 1017.6 1017.6 0.0
03/05:30pm 21.3 17.9 12.4 57 5.0 ENE 22 33 12 18 1017.1 - 0.0
03/05:00pm 22.0 17.7 13.3 57 5.0 ENE 28 33 15 18 1016.6 - 0.0
03/04:30pm 22.4 17.7 13.2 56 5.3 ENE 30 35 16 19 1016.3 - 0.0
03/04:00pm 22.6 17.9 13.2 55 5.4 ENE 30 35 16 19 1016.3 - 0.0
03/03:30pm 23.3 19.2 13.7 54 5.6 ENE 28 35 15 19 1016.2 - 0.0
03/03:00pm 23.7 19.8 13.4 52 6.0 ENE 26 33 14 18 1016.3 1016.3 0.0
03/02:30pm 24.1 20.0 11.5 45 7.1 ENE 24 32 13 17 1016.5 - 0.0
03/02:00pm 24.2 20.1 11.4 44 7.2 NE 24 32 13 17 1016.9 - 0.0
03/01:30pm 24.5 20.8 11.4 43 7.4 NE 22 30 12 16 1017.1 - 0.0
03/01:00pm 24.0 19.7 10.7 43 7.4 NE 24 30 13 16 1017.5 - 0.0
03/12:30pm 24.5 21.1 11.1 43 7.5 ENE 20 30 11 16 1018.1 - 0.0
03/12:00pm 24.3 21.1 12.0 46 7.0 E 20 30 11 16 1018.7 1018.7 0.0
03/11:30am 24.0 20.9 12.3 48 6.7 E 20 32 11 17 1019.2 - 0.0
03/11:00am 23.3 21.0 13.1 52 5.9 ESE 17 26 9 14 1019.6 - 0.0
03/10:30am 22.3 20.0 13.1 56 5.3 SE 17 24 9 13 1019.8 - 0.0
03/10:00am 22.2 19.9 12.9 55 5.3 ESE 17 22 9 12 1019.8 - 0.0
03/09:30am 22.6 20.9 12.6 53 5.7 SSE 13 19 7 10 1019.8 - 0.0
03/09:00am 20.9 21.0 14.4 66 3.8 ESE 7 11 4 6 1019.6 1019.6 0.0
03/08:30am 19.2 21.1 15.8 81 2.0 CALM 0 0 0 0 1019.3 - 0.0
03/08:00am 17.4 19.3 15.7 90 1.0 CALM 0 0 0 0 1019.1 - 0.0
03/07:45am 16.3 18.0 15.3 94 0.6 CALM 0 0 0 0 1018.8 - 0.0
03/07:30am 15.3 16.8 14.6 96 0.4 CALM 0 4 0 2 1018.7 - 0.0
03/07:13am 14.2 15.4 13.8 97 0.2 CALM 0 - 0 - 1018.4 - 0.0
03/07:00am 13.7 14.7 13.3 97 0.2 CALM 0 - 0 - 1018.3 - 0.0
03/06:47am 13.2 14.1 12.8 97 0.2 CALM 0 - 0 - 1018.2 - 0.0
03/06:30am 12.3 12.9 11.9 97 0.2 CALM 0 - 0 - 1018.1 - 0.0
03/06:27am 12.4 13.0 11.8 96 0.3 CALM 0 - 0 - 1018.0 - 0.0
03/06:00am 13.4 14.1 12.3 93 0.6 CALM 0 0 0 0 1017.8 1017.8 0.0
03/05:30am 15.2 16.7 14.7 97 0.3 CALM 0 0 0 0 1017.6 - 0.0
03/05:00am 14.1 15.3 13.9 99 0.1 CALM 0 0 0 0 1017.3 - 0.0
03/04:30am 14.4 15.7 14.2 99 0.1 CALM 0 0 0 0 1017.2 - 0.0
03/04:10am 14.5 15.8 14.1 97 0.2 CALM 0 0 0 0 1017.2 - 0.0
03/04:00am 14.6 16.0 14.4 99 0.1 CALM 0 0 0 0 1017.2 - 0.0
03/03:53am 14.9 16.3 14.5 97 0.2 CALM 0 - 0 - 1017.2 - 0.0
03/03:32am 14.4 15.7 14.0 97 0.2 CALM 0 - 0 - 1017.3 - 0.0
03/03:30am 14.3 15.5 13.9 97 0.2 CALM 0 - 0 - 1017.3 - 0.0
03/03:14am 14.4 15.7 14.2 99 0.1 CALM 0 - 0 - 1017.4 - 0.0
03/03:01am 14.6 15.9 14.2 97 0.2 CALM 0 - 0 - 1017.6 - 0.0
03/03:00am 14.6 15.9 14.2 97 0.2 CALM 0 - 0 - 1017.6 1017.6 0.0
03/02:41am 14.7 16.1 14.3 97 0.2 CALM 0 0 0 0 1017.6 - 0.0
03/02:37am 14.8 16.2 14.4 97 0.2 CALM 0 0 0 0 1017.6 - 0.0
03/02:30am 14.9 16.3 14.5 97 0.2 CALM 0 0 0 0 1017.8 - 0.0
03/02:26am 14.9 16.4 14.7 99 0.1 CALM 0 0 0 0 1017.8 - 0.0
03/02:13am 14.9 16.3 14.4 97 0.3 CALM 0 0 0 0 1017.8 - 0.0
03/02:00am 14.9 16.2 14.2 96 0.4 CALM 0 - 0 - 1018.0 - 0.0
03/01:46am 15.2 16.8 14.9 98 0.2 CALM 0 - 0 - 1018.2 - 0.0
03/01:30am 15.7 17.4 15.2 97 0.3 CALM 0 0 0 0 1018.4 - 0.0
03/01:00am 15.9 17.7 15.6 98 0.2 CALM 0 0 0 0 1018.7 - 0.0
03/12:30am 16.4 18.3 15.7 96 0.4 CALM 0 0 0 0 1018.8 - 0.0
03/12:00am 16.5 18.5 16.0 97 0.3 CALM 0 0 0 0 1019.0 1019.0 0.0
 
Date/Time
EST
Temp
°C
App
Temp
°C
Dew
Point
Rel
Hum
%
Delta-T
°C
Wind Press
QNH
hPa
Press
MSL
hPa
Rain
since 9 am
mm
Dir
 
Spd
km/h
Gust
km/h
Spd
kts
Gust
kts
02/11:30pm 16.4 18.2 15.5 94 0.5 CALM 0 0 0 0 1019.3 - 0.0
02/11:00pm 15.8 17.3 14.6 93 0.7 CALM 0 0 0 0 1019.5 - 0.0
02/10:30pm 18.7 19.7 16.9 89 1.1 SSE 7 9 4 5 1019.8 - 0.0
02/10:00pm 19.2 20.2 16.9 86 1.4 SSE 7 9 4 5 1019.9 - 0.0
02/09:30pm 19.5 20.2 17.0 85 1.5 SSE 9 11 5 6 1019.9 - 0.0
02/09:00pm 19.7 20.0 17.1 85 1.6 S 11 13 6 7 1019.7 1019.7 0.0
02/08:30pm 20.2 21.5 17.1 82 1.9 SSE 6 7 3 4 - - 0.0
02/08:00pm 20.7 23.3 17.6 82 1.9 CALM 0 0 0 0 1019.4 - 0.0
02/07:30pm 20.8 22.3 17.7 82 1.9 ENE 6 9 3 5 1019.2 - 0.0
02/07:00pm 21.0 21.3 17.8 82 2.0 ENE 13 17 7 9 1018.9 - 0.0
02/06:30pm 21.1 21.0 17.9 82 2.0 NE 15 19 8 10 1018.6 - 0.0
02/06:00pm 21.4 21.2 17.7 79 2.3 ENE 15 20 8 11 1018.2 1018.2 0.0
02/05:30pm 22.0 20.8 17.1 74 3.0 E 19 22 10 12 1017.9 - 0.0
02/05:00pm 22.7 21.2 16.8 69 3.6 E 20 26 11 14 1017.7 - 0.0
02/04:30pm 23.7 21.9 16.1 62 4.6 ENE 20 26 11 14 1017.6 - 0.0
02/04:00pm 24.2 22.3 15.8 59 5.1 ENE 20 26 11 14 1017.6 - 0.0
02/03:30pm 24.2 21.4 14.2 53 5.9 NE 22 28 12 15 1017.7 - 0.0
02/03:00pm 24.9 22.0 15.1 54 5.9 ENE 24 32 13 17 1017.8 1017.8 0.0
02/02:30pm 24.2 20.2 14.2 53 5.9 NE 28 35 15 19 1018.0 - 0.0
02/02:00pm 25.1 21.1 15.3 54 5.9 ENE 30 37 16 20 1018.3 - 0.0
02/01:30pm 25.3 21.6 15.0 53 6.2 NE 28 33 15 18 1018.5 - 0.0
02/01:00pm 25.2 22.3 14.0 49 6.6 ENE 22 30 12 16 1018.8 - 0.0
02/12:30pm 25.6 22.2 13.7 47 7.0 NE 24 32 13 17 1019.2 - 0.0
02/12:00pm 25.6 21.5 12.6 44 7.5 ENE 26 33 14 18 1019.8 1019.8 0.0
02/11:30am 25.2 22.0 13.0 46 7.1 ENE 22 30 12 16 1020.5 - 0.0
02/11:00am 24.5 22.8 12.5 47 6.9 SSE 13 22 7 12 1020.9 - 0.0
02/10:30am 24.7 24.1 13.6 50 6.5 SSE 9 15 5 8 1021.5 - 0.0
02/10:00am 23.5 23.0 13.9 55 5.6 SSE 9 15 5 8 1021.6 - 0.0
02/09:30am 22.5 22.0 14.9 62 4.5 S 11 13 6 7 1021.7 - 0.0
02/09:00am 21.3 23.2 15.8 71 3.3 CALM 0 9 0 5 1021.7 1021.7 0.0
02/08:30am 19.6 21.3 16.3 81 2.0 ESE 2 6 1 3 1021.5 - 0.0
02/08:00am 19.0 19.7 16.0 83 1.8 SSE 7 9 4 5 1021.1 - 0.0
02/07:30am 17.1 16.9 15.6 91 0.9 S 11 13 6 7 1020.7 - 0.0
02/07:00am 15.5 17.2 15.2 98 0.2 CALM 0 - 0 - 1020.5 - 0.0
02/06:53am 14.8 16.2 14.4 97 0.2 CALM 0 - 0 - 1020.4 - 0.0

Other Formats:

Comma delimited format used in spreadsheet applications
http://www.bom.gov.au/fwo/IDQ60801/IDQ60801.94294.axf

JavaScript Object Notation format (JSON) in row-major order
http://www.bom.gov.au/fwo/IDQ60801/IDQ60801.94294.json